createdAt,value
2019-05-10T00:00:39.585Z,94.10
2019-05-10T00:03:25.384Z,94.10
2019-05-10T00:06:11.232Z,94.00
2019-05-10T00:08:57.593Z,94.10
2019-05-10T00:11:29.431Z,94.90
2019-05-10T00:13:58.619Z,94.40
2019-05-10T00:16:26.342Z,94.20
2019-05-10T00:18:53.884Z,94.40
2019-05-10T00:21:21.444Z,94.10
2019-05-10T00:23:48.993Z,94.60
2019-05-10T00:26:16.600Z,94.80
2019-05-10T00:28:44.151Z,94.60
2019-05-10T00:31:11.684Z,94.10
2019-05-10T00:33:39.235Z,94.20
2019-05-10T00:36:06.778Z,94.40
2019-05-10T00:38:34.328Z,94.20
2019-05-10T00:41:01.858Z,94.20
2019-05-10T00:43:29.409Z,94.30
2019-05-10T00:45:56.961Z,94.30
2019-05-10T00:48:24.488Z,94.20
2019-05-10T00:50:52.365Z,94.30
2019-05-10T00:53:19.905Z,94.70
2019-05-10T00:55:47.456Z,95.10
2019-05-10T00:58:15.000Z,94.70
2019-05-10T01:00:42.792Z,94.80
2019-05-10T01:03:10.329Z,95.00
2019-05-10T01:05:37.906Z,94.80
2019-05-10T01:08:05.436Z,94.90
2019-05-10T01:10:32.990Z,95.00
2019-05-10T01:13:00.544Z,95.20
2019-05-10T01:15:28.093Z,94.90
2019-05-10T01:17:55.629Z,95.30
2019-05-10T01:20:23.473Z,95.00
2019-05-10T01:22:51.013Z,94.90
2019-05-10T01:25:33.648Z,94.70
2019-05-10T01:27:47.820Z,94.70
2019-05-10T01:30:15.384Z,94.40
2019-05-10T01:32:42.908Z,94.50
2019-05-10T01:35:10.456Z,94.80
2019-05-10T01:37:37.987Z,94.70
2019-05-10T01:40:05.628Z,94.90
2019-05-10T01:42:33.164Z,94.80
2019-05-10T01:45:00.721Z,95.00
2019-05-10T01:47:28.461Z,95.20
2019-05-10T01:49:55.996Z,95.30
2019-05-10T01:52:23.532Z,95.50
2019-05-10T01:54:51.357Z,95.10
2019-05-10T01:57:18.899Z,95.30
2019-05-10T01:59:46.512Z,95.40
2019-05-10T02:02:14.057Z,94.80
2019-05-10T02:04:41.609Z,95.00
2019-05-10T02:07:09.168Z,94.60
2019-05-10T02:09:36.709Z,94.50
2019-05-10T02:12:04.260Z,94.50
2019-05-10T02:14:31.834Z,94.90
2019-05-10T02:16:59.364Z,94.80
2019-05-10T02:19:26.933Z,94.50
2019-05-10T02:21:54.468Z,94.80
2019-05-10T02:24:22.024Z,94.90
2019-05-10T02:26:49.557Z,94.40
2019-05-10T02:29:17.144Z,94.60
2019-05-10T02:31:44.866Z,94.60
2019-05-10T02:34:12.413Z,94.60
2019-05-10T02:36:39.947Z,94.60
2019-05-10T02:39:08.060Z,94.60
2019-05-10T02:41:35.773Z,94.80
2019-05-10T02:44:03.391Z,94.40
2019-05-10T02:46:30.938Z,94.60
2019-05-10T02:48:58.477Z,93.90
2019-05-10T02:51:26.048Z,93.70
2019-05-10T02:53:53.598Z,94.00
2019-05-10T02:56:30.210Z,93.90
2019-05-10T02:58:50.552Z,94.50
2019-05-10T03:01:18.768Z,94.40
2019-05-10T03:03:46.309Z,94.30
2019-05-10T03:06:14.842Z,93.60
2019-05-10T03:08:51.514Z,93.90
2019-05-10T03:11:19.101Z,93.70
2019-05-10T03:13:47.111Z,94.10
2019-05-10T03:16:16.429Z,94.70
2019-05-10T03:18:43.967Z,94.50
2019-05-10T03:21:11.513Z,94.50
2019-05-10T03:23:39.045Z,94.40
2019-05-10T03:26:06.594Z,94.30
2019-05-10T03:28:34.162Z,94.30
2019-05-10T03:31:01.799Z,94.40
2019-05-10T03:33:29.562Z,93.80
2019-05-10T03:35:57.492Z,94.40
2019-05-10T03:38:25.038Z,94.30
2019-05-10T03:40:52.637Z,94.50
2019-05-10T03:43:20.183Z,94.70
2019-05-10T03:45:47.730Z,94.40
2019-05-10T03:48:15.265Z,94.50
2019-05-10T03:50:43.148Z,94.30
2019-05-10T03:53:10.690Z,94.80
2019-05-10T03:55:38.245Z,94.80
2019-05-10T03:58:05.798Z,95.20
2019-05-10T04:00:33.346Z,95.10
2019-05-10T04:03:00.975Z,95.20
2019-05-10T04:05:28.640Z,94.90
2019-05-10T04:07:56.291Z,95.10
2019-05-10T04:10:23.860Z,95.00
2019-05-10T04:12:51.409Z,95.00
2019-05-10T04:15:19.052Z,94.90
2019-05-10T04:17:50.205Z,94.90
2019-05-10T04:20:15.868Z,94.20
2019-05-10T04:22:43.407Z,94.70
2019-05-10T04:25:10.958Z,94.90
2019-05-10T04:27:38.504Z,94.90
2019-05-10T04:30:06.049Z,94.80
2019-05-10T04:32:33.594Z,94.60
2019-05-10T04:35:01.139Z,94.40
2019-05-10T04:37:28.672Z,94.40
2019-05-10T04:39:56.336Z,94.60
2019-05-10T04:42:23.904Z,94.90
2019-05-10T04:44:53.426Z,95.10
2019-05-10T04:47:20.725Z,95.50
2019-05-10T04:49:48.305Z,95.30
2019-05-10T04:52:15.841Z,95.30
2019-05-10T04:54:43.414Z,95.30
2019-05-10T04:57:10.957Z,95.20
2019-05-10T04:59:38.541Z,95.00
2019-05-10T05:02:06.138Z,94.80
2019-05-10T05:04:33.666Z,95.20
2019-05-10T05:07:01.222Z,94.80
2019-05-10T05:09:28.773Z,95.20
2019-05-10T05:11:56.325Z,95.10
2019-05-10T05:14:23.860Z,95.10
2019-05-10T05:16:51.725Z,95.20
2019-05-10T05:19:19.261Z,95.10
2019-05-10T05:21:46.817Z,94.90
2019-05-10T05:24:16.986Z,95.10
2019-05-10T05:26:43.629Z,95.30
2019-05-10T05:29:11.176Z,95.10
2019-05-10T05:31:38.720Z,94.80
2019-05-10T05:34:06.422Z,95.00
2019-05-10T05:36:33.984Z,95.30
2019-05-10T05:39:01.528Z,95.80
2019-05-10T05:41:31.808Z,96.00
2019-05-10T05:43:58.652Z,95.70
2019-05-10T05:46:26.205Z,95.80
2019-05-10T05:48:54.009Z,95.90
2019-05-10T05:51:21.596Z,96.00
2019-05-10T05:53:49.163Z,95.60
2019-05-10T05:56:16.707Z,95.40
2019-05-10T05:58:46.813Z,95.70
2019-05-10T06:01:24.276Z,96.00
2019-05-10T06:03:42.780Z,96.30
2019-05-10T06:06:21.587Z,96.30
2019-05-10T06:08:39.608Z,96.30
2019-05-10T06:11:09.205Z,96.50
2019-05-10T06:13:36.580Z,96.10
2019-05-10T06:16:06.366Z,96.10
2019-05-10T06:18:33.433Z,95.60
2019-05-10T06:21:01.008Z,95.50
2019-05-10T06:23:29.037Z,95.90
2019-05-10T06:25:57.808Z,95.90
2019-05-10T06:28:32.679Z,95.90
2019-05-10T06:30:55.077Z,95.50
2019-05-10T06:33:22.736Z,95.40
2019-05-10T06:35:50.267Z,95.40
2019-05-10T06:38:17.821Z,95.60
2019-05-10T06:40:47.519Z,95.60
2019-05-10T06:43:15.627Z,95.60
2019-05-10T06:45:46.716Z,95.70
2019-05-10T06:48:12.565Z,96.00
2019-05-10T06:50:40.101Z,96.30
2019-05-10T06:53:10.725Z,95.20
2019-05-10T06:55:36.909Z,95.70
2019-05-10T06:58:04.462Z,96.10
2019-05-10T07:00:32.273Z,95.90
2019-05-10T07:02:59.824Z,96.10
2019-05-10T07:05:27.421Z,95.70
2019-05-10T07:08:00.555Z,95.80
2019-05-10T07:10:25.364Z,95.70
2019-05-10T07:12:57.003Z,95.70
2019-05-10T07:15:22.600Z,94.50
2019-05-10T07:17:50.140Z,94.10
2019-05-10T07:20:17.681Z,93.90
2019-05-10T07:22:45.333Z,94.50
2019-05-10T07:25:12.866Z,94.60
2019-05-10T07:27:40.408Z,94.50
2019-05-10T07:30:08.025Z,94.70
2019-05-10T07:32:35.695Z,92.50
2019-05-10T07:35:04.512Z,92.90
2019-05-10T07:37:32.157Z,93.80
2019-05-10T07:40:03.281Z,94.00
2019-05-10T07:42:29.409Z,93.60
2019-05-10T07:44:56.924Z,93.40
2019-05-10T07:47:30.243Z,93.40
2019-05-10T07:49:54.080Z,93.90
2019-05-10T07:52:21.657Z,92.00
2019-05-10T07:54:49.183Z,92.90
2019-05-10T07:57:18.537Z,93.40
2019-05-10T07:59:50.625Z,93.10
2019-05-10T08:02:15.601Z,94.40
2019-05-10T08:04:43.207Z,99.90
2019-05-10T08:07:10.877Z,96.40
2019-05-10T08:09:44.754Z,86.40
2019-05-10T08:12:09.839Z,86.30
2019-05-10T08:14:39.231Z,86.30
2019-05-10T08:17:08.947Z,85.60
2019-05-10T08:19:37.692Z,90.20
2019-05-10T08:22:05.512Z,90.00
2019-05-10T08:24:35.463Z,88.40
2019-05-10T08:27:07.998Z,89.10
2019-05-10T08:29:33.049Z,90.00
2019-05-10T08:32:02.862Z,87.90
2019-05-10T08:34:35.670Z,84.80
2019-05-10T08:36:59.256Z,81.70
2019-05-10T08:39:26.811Z,81.30
2019-05-10T08:42:04.086Z,83.20
2019-05-10T08:44:24.126Z,84.00
2019-05-10T08:46:52.524Z,87.20
2019-05-10T08:49:22.138Z,83.50
2019-05-10T08:51:52.101Z,82.80
2019-05-10T08:54:19.129Z,80.30
2019-05-10T08:59:33.983Z,80.30
2019-05-10T09:02:02.110Z,78.90
2019-05-10T09:04:33.454Z,78.40
2019-05-10T09:07:00.673Z,81.60
2019-05-10T09:09:33.864Z,80.80
2019-05-10T09:12:04.216Z,80.10
2019-05-10T09:14:27.436Z,80.70
2019-05-10T09:17:00.608Z,81.40
2019-05-10T09:19:27.803Z,80.40
2019-05-10T09:21:55.043Z,82.00
2019-05-10T09:24:23.035Z,81.10
2019-05-10T09:26:54.878Z,80.20
2019-05-10T09:29:21.797Z,82.10
2019-05-10T09:31:51.225Z,84.20
2019-05-10T09:34:25.345Z,84.80
2019-05-10T09:36:47.896Z,85.40
2019-05-10T09:39:21.363Z,85.10
2019-05-10T09:41:44.956Z,78.90
2019-05-10T09:44:13.110Z,77.40
2019-05-10T09:46:42.141Z,73.80
2019-05-10T09:49:15.724Z,68.70
2019-05-10T09:51:39.312Z,66.80
2019-05-10T09:54:07.771Z,66.00
2019-05-10T09:56:42.074Z,67.50
2019-05-10T09:59:05.013Z,67.40
2019-05-10T10:01:32.553Z,67.10
2019-05-10T10:04:01.987Z,67.70
2019-05-10T10:06:29.800Z,68.70
2019-05-10T10:09:00.718Z,68.40
2019-05-10T10:11:27.899Z,72.00
2019-05-10T10:13:58.981Z,66.00
2019-05-10T10:16:25.200Z,66.10
2019-05-10T10:18:52.748Z,65.90
2019-05-10T10:21:30.491Z,62.90
2019-05-10T10:23:49.887Z,62.90
2019-05-10T10:26:21.156Z,65.70
2019-05-10T10:28:49.511Z,62.30
2019-05-10T10:31:27.011Z,56.70
2019-05-10T10:33:57.392Z,59.20
2019-05-10T10:36:15.129Z,58.80
2019-05-10T10:38:45.222Z,59.30
2019-05-10T10:41:16.395Z,59.10
2019-05-10T10:44:00.631Z,60.60
2019-05-10T10:46:28.341Z,57.30
2019-05-10T10:48:55.963Z,59.20
2019-05-10T10:51:26.447Z,60.00
2019-05-10T10:53:54.829Z,59.60
2019-05-10T10:56:22.029Z,57.90
2019-05-10T10:58:50.194Z,59.20
2019-05-10T11:01:24.717Z,59.30
2019-05-10T11:03:48.965Z,59.00
2019-05-10T11:06:16.357Z,60.10
2019-05-10T11:08:43.894Z,62.80
2019-05-10T11:11:11.453Z,62.90
2019-05-10T11:13:44.949Z,62.40
2019-05-10T11:16:10.884Z,60.60
2019-05-10T11:18:37.592Z,61.90
2019-05-10T11:21:05.148Z,61.00
2019-05-10T11:23:37.562Z,60.60
2019-05-10T11:26:02.230Z,62.60
2019-05-10T11:28:38.415Z,64.80
2019-05-10T11:31:01.137Z,66.20
2019-05-10T11:33:32.836Z,65.10
2019-05-10T11:36:02.928Z,60.80
2019-05-10T11:38:27.233Z,60.40
2019-05-10T11:40:54.777Z,61.90
2019-05-10T11:43:25.841Z,62.30
2019-05-10T11:45:51.625Z,63.30
2019-05-10T11:48:21.457Z,63.80
2019-05-10T11:50:51.107Z,65.10
2019-05-10T11:53:17.762Z,66.30
2019-05-10T11:55:45.309Z,62.30
2019-05-10T11:58:13.446Z,64.50
2019-05-10T12:00:41.509Z,64.90
2019-05-10T12:03:15.061Z,62.80
2019-05-10T12:05:42.296Z,63.70
2019-05-10T12:08:08.419Z,63.70
2019-05-10T12:10:43.072Z,62.60
2019-05-10T12:13:14.983Z,62.20
2019-05-10T12:15:34.588Z,62.20
2019-05-10T12:18:04.899Z,61.00
2019-05-10T12:20:41.463Z,61.40
2019-05-10T12:23:03.356Z,61.10
2019-05-10T12:25:46.337Z,64.80
2019-05-10T12:28:01.206Z,63.40
2019-05-10T12:30:29.603Z,62.40
2019-05-10T12:33:05.925Z,66.40
2019-05-10T12:35:35.753Z,69.60
2019-05-10T12:37:56.559Z,71.90
2019-05-10T12:40:24.438Z,72.90
2019-05-10T12:42:52.120Z,74.30
2019-05-10T12:45:22.992Z,68.90
2019-05-10T12:47:51.408Z,69.90
2019-05-10T12:50:18.512Z,68.90
2019-05-10T12:52:50.445Z,63.70
2019-05-10T12:55:15.321Z,63.00
2019-05-10T12:57:43.663Z,63.30
2019-05-10T13:00:13.477Z,63.40
2019-05-10T13:02:44.728Z,64.40
2019-05-10T13:05:09.845Z,65.20
2019-05-10T13:07:37.451Z,62.60
2019-05-10T13:10:08.353Z,63.70
2019-05-10T13:12:36.825Z,64.90
2019-05-10T13:15:06.788Z,65.60
2019-05-10T13:17:34.350Z,62.40
2019-05-10T13:20:01.892Z,62.30
2019-05-10T13:22:36.787Z,64.40
2019-05-10T13:24:59.092Z,61.00
2019-05-10T13:27:26.645Z,57.10
2019-05-10T13:29:54.237Z,57.70
2019-05-10T13:32:22.473Z,58.30
2019-05-10T13:34:50.104Z,57.40
2019-05-10T13:37:23.125Z,57.50
2019-05-10T13:39:46.930Z,59.10
2019-05-10T13:42:14.876Z,59.00
2019-05-10T13:44:43.324Z,58.10
2019-05-10T13:47:11.945Z,58.20
2019-05-10T13:49:39.481Z,60.50
2019-05-10T13:52:07.076Z,59.10
2019-05-10T13:54:36.083Z,60.60
2019-05-10T13:57:03.909Z,60.90
2019-05-10T13:59:31.449Z,61.40
2019-05-10T14:01:59.099Z,60.00
2019-05-10T14:04:26.921Z,59.30
2019-05-10T14:06:54.469Z,57.40
2019-05-10T14:09:22.000Z,57.60
2019-05-10T14:11:49.793Z,58.60
2019-05-10T14:14:20.383Z,58.10
2019-05-10T14:16:46.600Z,57.00
2019-05-10T14:19:15.918Z,57.10
2019-05-10T14:21:43.514Z,54.20
2019-05-10T14:24:15.069Z,53.80
2019-05-10T14:26:40.392Z,54.20
2019-05-10T14:29:11.064Z,55.90
2019-05-10T14:31:37.226Z,54.80
2019-05-10T14:34:20.041Z,53.90
2019-05-10T14:36:40.221Z,55.30
2019-05-10T14:39:06.260Z,57.00
2019-05-10T14:41:33.798Z,58.20
2019-05-10T14:44:01.346Z,58.80
2019-05-10T14:46:28.956Z,58.90
2019-05-10T14:48:56.500Z,59.70
2019-05-10T14:51:37.861Z,58.80
2019-05-10T14:53:58.378Z,58.00
2019-05-10T14:56:22.643Z,57.90
2019-05-10T14:58:50.191Z,59.40
2019-05-10T15:01:17.724Z,58.50
2019-05-10T15:03:47.364Z,59.00
2019-05-10T15:06:14.816Z,60.00
2019-05-10T15:08:42.385Z,58.90
2019-05-10T15:11:09.905Z,58.40
2019-05-10T15:13:37.662Z,58.00
2019-05-10T15:16:09.727Z,58.20
2019-05-10T15:18:34.738Z,58.20
2019-05-10T15:21:02.512Z,56.70
2019-05-10T15:23:30.060Z,56.30
2019-05-10T15:26:03.658Z,57.80
2019-05-10T15:28:26.907Z,58.30
2019-05-10T15:30:54.453Z,56.00
2019-05-10T15:33:22.311Z,56.90
2019-05-10T15:35:51.688Z,57.10
2019-05-10T15:38:19.193Z,59.30
2019-05-10T15:40:46.740Z,57.00
2019-05-10T15:43:16.868Z,56.60
2019-05-10T15:45:46.106Z,56.50
2019-05-10T15:48:13.430Z,55.20
2019-05-10T15:50:41.245Z,56.20
2019-05-10T15:53:08.841Z,57.00
2019-05-10T15:55:36.391Z,55.90
2019-05-10T15:58:03.929Z,59.30
2019-05-10T16:00:38.331Z,58.60
2019-05-10T16:03:00.740Z,59.50
2019-05-10T16:05:42.552Z,60.20
2019-05-10T16:07:57.557Z,58.70
2019-05-10T16:10:28.373Z,59.70
2019-05-10T16:12:54.457Z,60.00
2019-05-10T16:15:22.009Z,58.10
2019-05-10T16:17:53.657Z,59.00
2019-05-10T16:20:18.845Z,59.70
2019-05-10T16:22:46.392Z,59.50
2019-05-10T16:25:13.941Z,59.40
2019-05-10T16:27:44.811Z,59.20
2019-05-10T16:30:11.990Z,60.80
2019-05-10T16:32:40.026Z,61.30
2019-05-10T16:35:12.712Z,61.20
2019-05-10T16:37:36.857Z,60.70
2019-05-10T16:40:07.635Z,59.70
2019-05-10T16:42:36.071Z,60.40
2019-05-10T16:45:03.888Z,62.90
2019-05-10T16:47:31.720Z,63.10
2019-05-10T16:49:59.272Z,61.20
2019-05-10T16:52:28.064Z,63.00
2019-05-10T16:54:58.109Z,64.00
2019-05-10T16:57:25.160Z,61.80
2019-05-10T16:59:53.001Z,60.80
2019-05-10T17:02:20.557Z,59.50
2019-05-10T17:04:48.088Z,60.70
2019-05-10T17:07:18.795Z,60.40
2019-05-10T17:09:49.454Z,61.70
2019-05-10T17:12:14.462Z,58.80
2019-05-10T17:14:42.008Z,59.20
2019-05-10T17:17:09.541Z,58.10
2019-05-10T17:19:37.124Z,61.00
2019-05-10T17:22:04.702Z,60.80
2019-05-10T17:24:32.296Z,60.30
2019-05-10T17:26:59.858Z,60.00
2019-05-10T17:29:27.384Z,61.00
2019-05-10T17:31:54.949Z,60.70
2019-05-10T17:34:29.026Z,59.80
2019-05-10T17:36:57.359Z,60.40
2019-05-10T17:39:26.163Z,59.70
2019-05-10T17:41:50.356Z,60.70
2019-05-10T17:44:23.132Z,62.70
2019-05-10T17:46:50.147Z,62.30
2019-05-10T17:49:18.634Z,63.90
2019-05-10T17:51:46.705Z,66.00
2019-05-10T17:54:14.251Z,64.40
2019-05-10T17:56:42.057Z,65.10
2019-05-10T17:59:11.864Z,62.60
2019-05-10T18:01:39.184Z,62.30
2019-05-10T18:04:06.720Z,63.20
2019-05-10T18:06:34.270Z,64.40
2019-05-10T18:09:01.805Z,63.50
2019-05-10T18:11:29.363Z,63.50
2019-05-10T18:13:56.964Z,65.10
2019-05-10T18:16:24.571Z,67.00
2019-05-10T18:18:52.096Z,68.10
2019-05-10T18:21:22.360Z,70.10
2019-05-10T18:23:52.698Z,70.00
2019-05-10T18:26:18.180Z,70.00
2019-05-10T18:28:45.716Z,70.20
2019-05-10T18:31:13.597Z,70.60
2019-05-10T18:33:44.852Z,70.80
2019-05-10T18:36:11.253Z,71.80
2019-05-10T18:38:39.041Z,71.30
2019-05-10T18:41:10.020Z,71.50
2019-05-10T18:43:40.778Z,72.00
2019-05-10T18:46:05.257Z,72.00
2019-05-10T18:48:33.092Z,73.00
2019-05-10T18:51:00.628Z,73.20
2019-05-10T18:53:28.189Z,73.20
2019-05-10T18:55:55.784Z,73.70
2019-05-10T18:58:28.806Z,74.20
2019-05-10T19:00:55.976Z,73.60
2019-05-10T19:03:21.900Z,73.40
2019-05-10T19:05:49.677Z,75.50
2019-05-10T19:08:17.233Z,74.80
2019-05-10T19:10:44.913Z,74.70
2019-05-10T19:13:13.402Z,75.60
2019-05-10T19:15:46.295Z,75.70
2019-05-10T19:18:10.703Z,75.70
2019-05-10T19:20:38.341Z,75.50
2019-05-10T19:23:05.898Z,75.60
2019-05-10T19:25:33.429Z,76.10
2019-05-10T19:28:00.988Z,75.60
2019-05-10T19:30:28.528Z,75.70
2019-05-10T19:32:57.856Z,76.50
2019-05-10T19:35:29.867Z,77.10
2019-05-10T19:37:54.617Z,77.10
2019-05-10T19:40:22.162Z,77.00
2019-05-10T19:42:49.863Z,76.90
2019-05-10T19:45:19.280Z,77.30
2019-05-10T19:47:49.811Z,76.50
2019-05-10T19:50:16.255Z,76.40
2019-05-10T19:52:43.799Z,76.10
2019-05-10T19:55:12.964Z,76.10
2019-05-10T19:57:40.648Z,77.20
2019-05-10T20:00:08.164Z,76.50
2019-05-10T20:02:35.716Z,76.50
2019-05-10T20:05:03.922Z,77.20
2019-05-10T20:07:44.653Z,77.30
2019-05-10T20:10:00.728Z,78.00
2019-05-10T20:12:28.269Z,79.50
2019-05-10T20:14:55.817Z,76.80
2019-05-10T20:17:23.486Z,76.50
2019-05-10T20:19:51.029Z,77.70
2019-05-10T20:22:18.560Z,77.50
2019-05-10T20:24:46.433Z,77.30
2019-05-10T20:27:13.969Z,76.20
2019-05-10T20:29:41.539Z,78.10
2019-05-10T20:32:09.057Z,76.70
2019-05-10T20:34:36.605Z,77.60
2019-05-10T20:37:04.265Z,76.70
2019-05-10T20:39:31.804Z,76.90
2019-05-10T20:41:59.343Z,76.60
2019-05-10T20:44:26.906Z,76.40
2019-05-10T20:46:54.447Z,77.80
2019-05-10T20:49:22.022Z,78.10
2019-05-10T20:51:49.629Z,78.60
2019-05-10T20:54:17.172Z,78.30
2019-05-10T20:56:44.721Z,78.50
2019-05-10T20:59:12.272Z,79.10
2019-05-10T21:01:39.885Z,79.30
2019-05-10T21:04:07.537Z,78.10
2019-05-10T21:06:35.073Z,78.90
2019-05-10T21:09:02.753Z,79.60
2019-05-10T21:11:30.385Z,79.80
2019-05-10T21:13:58.151Z,80.20
2019-05-10T21:16:25.872Z,80.10
2019-05-10T21:18:53.405Z,79.00
2019-05-10T21:21:21.061Z,79.30
2019-05-10T21:23:48.607Z,78.20
2019-05-10T21:26:16.145Z,78.80
2019-05-10T21:28:44.024Z,80.00
2019-05-10T21:31:11.895Z,79.60
2019-05-10T21:33:39.473Z,80.80
2019-05-10T21:36:07.009Z,80.70
2019-05-10T21:38:34.544Z,80.80
2019-05-10T21:41:02.117Z,81.30
2019-05-10T21:43:29.752Z,83.50
2019-05-10T21:45:57.412Z,84.50
2019-05-10T21:48:24.989Z,86.20
2019-05-10T21:50:53.217Z,86.90
2019-05-10T21:53:20.804Z,87.80
2019-05-10T21:55:48.329Z,88.10
2019-05-10T21:58:15.916Z,88.50
2019-05-10T22:00:45.169Z,89.80
2019-05-10T22:03:12.771Z,90.40
2019-05-10T22:05:40.360Z,91.20
2019-05-10T22:08:07.952Z,91.70
2019-05-10T22:10:35.552Z,91.90
2019-05-10T22:13:03.189Z,92.40
2019-05-10T22:15:32.042Z,92.50
2019-05-10T22:17:59.637Z,92.70
2019-05-10T22:20:27.224Z,93.40
2019-05-10T22:22:54.796Z,93.10
2019-05-10T22:25:22.433Z,93.10
2019-05-10T22:27:50.103Z,93.10
2019-05-10T22:30:17.698Z,93.70
2019-05-10T22:32:45.369Z,94.00
2019-05-10T22:35:12.952Z,94.30
2019-05-10T22:37:40.540Z,94.10
2019-05-10T22:40:08.123Z,93.90
2019-05-10T22:42:35.692Z,94.40
2019-05-10T22:45:03.899Z,94.20
2019-05-10T22:47:31.472Z,94.40
2019-05-10T22:49:59.094Z,94.70
2019-05-10T22:52:26.685Z,94.80
2019-05-10T22:54:54.328Z,94.90
2019-05-10T22:57:21.936Z,95.20
2019-05-10T22:59:49.526Z,95.30
2019-05-10T23:02:17.130Z,95.70
2019-05-10T23:04:45.082Z,95.80
2019-05-10T23:07:12.924Z,95.20
2019-05-10T23:09:40.512Z,95.50
2019-05-10T23:12:08.128Z,95.80
2019-05-10T23:14:36.067Z,95.10
2019-05-10T23:17:03.654Z,94.50
2019-05-10T23:19:31.241Z,94.40
2019-05-10T23:21:58.820Z,94.30
2019-05-10T23:24:39.092Z,94.10
2019-05-10T23:27:06.957Z,95.80
2019-05-10T23:29:34.584Z,95.70
2019-05-10T23:32:02.243Z,96.10
2019-05-10T23:34:30.001Z,96.10
2019-05-10T23:36:57.592Z,96.40
2019-05-10T23:39:39.719Z,96.30
2019-05-10T23:41:54.788Z,96.30
2019-05-10T23:44:22.364Z,96.00
2019-05-10T23:46:49.960Z,96.30
2019-05-10T23:49:17.547Z,96.50
2019-05-10T23:51:45.141Z,96.60
2019-05-10T23:54:12.724Z,95.70
2019-05-10T23:56:40.314Z,95.10
2019-05-10T23:59:07.892Z,95.00
